logo
Search for airport 
image banner adimage banner adimage banner ad
image banner ad

EDAVE - Aventoft

Located in , Germany

ICAO - , IATA -

Data provided by Airmate  

General information

Coordinates: N54°53'46" E8°49'14"
Elevation is -3 feet MSL.
 
Rated:
View ratings:
[VIEW]
View others Airports in Schleswig-Holstein

Operational data

Special qualification required
Current time UTC:
Current local time:
Weather at : EDXW - Sylt ( 31 km )
METAR: EDXW 241750Z 20011KT CAVOK 16/10 Q1023
TAF: TAF EDXW 241700Z 2418/2421 19012KT CAVOK
View NOTAMs / SUP AIP / TFR affecting this airport [VIEW]
Communications frequencies: [VIEW]

Runways:

RWY identifierQFULength (ft)Width (ft)SurfaceLDA (ft)
09268°318298GRASS
2788°318298GRASS

Airport contact information

Address: Germany

Satellite view of EDAVE